createdAt,value
2019-05-17T00:01:07.340Z,13.30
2019-05-17T00:03:36.717Z,13.20
2019-05-17T00:06:06.752Z,13.20
2019-05-17T00:08:38.130Z,13.10
2019-05-17T00:11:06.785Z,13.20
2019-05-17T00:13:38.481Z,13.10
2019-05-17T00:16:07.188Z,13.00
2019-05-17T00:18:37.049Z,13.00
2019-05-17T00:21:07.675Z,13.00
2019-05-17T00:23:37.465Z,13.00
2019-05-17T00:26:07.176Z,12.90
2019-05-17T00:28:37.492Z,12.90
2019-05-17T00:31:06.790Z,12.90
2019-05-17T00:33:36.678Z,12.90
2019-05-17T00:36:06.971Z,12.90
2019-05-17T00:38:47.922Z,12.90
2019-05-17T00:41:07.173Z,12.90
2019-05-17T00:43:36.861Z,12.90
2019-05-17T00:46:06.659Z,12.90
2019-05-17T00:48:37.206Z,12.90
2019-05-17T00:51:10.122Z,12.90
2019-05-17T00:53:37.213Z,12.90
2019-05-17T00:56:06.615Z,12.90
2019-05-17T00:58:37.050Z,12.90
2019-05-17T01:01:08.398Z,12.90
2019-05-17T01:03:36.973Z,12.90
2019-05-17T01:06:06.326Z,12.90
2019-05-17T01:08:37.303Z,12.90
2019-05-17T01:11:07.130Z,12.90
2019-05-17T01:13:37.388Z,12.90
2019-05-17T01:16:07.409Z,12.90
2019-05-17T01:18:36.664Z,12.90
2019-05-17T01:21:06.784Z,12.90
2019-05-17T01:23:36.268Z,12.90
2019-05-17T01:26:07.490Z,12.90
2019-05-17T01:28:36.439Z,12.80
2019-05-17T01:31:06.651Z,12.80
2019-05-17T01:33:36.799Z,12.80
2019-05-17T01:36:06.871Z,12.80
2019-05-17T01:38:37.672Z,12.80
2019-05-17T01:41:06.957Z,12.80
2019-05-17T01:43:36.835Z,12.70
2019-05-17T01:46:06.684Z,12.70
2019-05-17T01:48:36.547Z,12.70
2019-05-17T01:51:07.551Z,12.70
2019-05-17T01:53:36.540Z,12.70
2019-05-17T01:56:06.378Z,12.70
2019-05-17T01:58:36.593Z,12.70
2019-05-17T02:01:07.721Z,12.70
2019-05-17T02:03:37.520Z,12.70
2019-05-17T02:06:07.486Z,12.70
2019-05-17T02:08:37.222Z,12.70
2019-05-17T02:11:06.871Z,12.70
2019-05-17T02:13:37.632Z,12.70
2019-05-17T02:16:07.149Z,12.70
2019-05-17T02:18:37.276Z,12.70
2019-05-17T02:21:06.693Z,12.60
2019-05-17T02:23:37.185Z,12.60
2019-05-17T02:26:06.937Z,12.60
2019-05-17T02:28:36.194Z,12.60
2019-05-17T02:31:05.396Z,12.60
2019-05-17T02:33:34.518Z,12.60
2019-05-17T02:36:03.515Z,12.60
2019-05-17T02:38:33.321Z,12.50
2019-05-17T02:41:03.404Z,12.50
2019-05-17T02:43:33.602Z,12.50
2019-05-17T02:46:03.822Z,12.50
2019-05-17T02:48:34.089Z,12.50
2019-05-17T02:51:03.695Z,12.50
2019-05-17T02:53:33.708Z,12.50
2019-05-17T02:56:03.333Z,12.50
2019-05-17T02:58:33.185Z,12.50
2019-05-17T03:01:03.553Z,12.60
2019-05-17T03:03:33.068Z,12.50
2019-05-17T03:06:03.140Z,12.50
2019-05-17T03:08:34.191Z,12.50
2019-05-17T03:11:08.756Z,12.50
2019-05-17T03:13:37.740Z,12.60
2019-05-17T03:16:06.632Z,12.60
2019-05-17T03:18:35.420Z,12.60
2019-05-17T03:21:04.731Z,12.50
2019-05-17T03:23:33.729Z,12.60
2019-05-17T03:26:03.649Z,12.50
2019-05-17T03:28:33.666Z,12.50
2019-05-17T03:31:08.126Z,12.40
2019-05-17T03:33:35.757Z,12.40
2019-05-17T03:36:06.906Z,12.40
2019-05-17T03:38:35.453Z,12.40
2019-05-17T03:41:17.834Z,12.30
2019-05-17T03:43:35.502Z,12.30
2019-05-17T03:46:04.992Z,12.20
2019-05-17T03:48:33.991Z,12.20
2019-05-17T03:51:03.085Z,12.20
2019-05-17T03:53:33.509Z,12.20
2019-05-17T03:56:03.125Z,12.10
2019-05-17T03:58:33.429Z,12.10
2019-05-17T04:01:04.137Z,12.10
2019-05-17T04:03:35.491Z,12.10
2019-05-17T04:06:04.105Z,12.10
2019-05-17T04:08:33.608Z,12.10
2019-05-17T04:11:20.634Z,12.00
2019-05-17T04:13:34.461Z,12.00
2019-05-17T04:16:08.669Z,12.00
2019-05-17T04:18:34.699Z,12.00
2019-05-17T04:21:03.746Z,11.90
2019-05-17T04:23:34.171Z,12.00
2019-05-17T04:26:04.159Z,12.00
2019-05-17T04:28:33.813Z,12.00
2019-05-17T04:31:03.291Z,11.90
2019-05-17T04:33:33.615Z,11.90
2019-05-17T04:36:03.142Z,11.90
2019-05-17T04:38:33.123Z,11.90
2019-05-17T04:41:03.348Z,11.90
2019-05-17T04:43:33.697Z,11.80
2019-05-17T04:46:03.072Z,11.90
2019-05-17T04:48:32.824Z,11.80
2019-05-17T04:51:02.770Z,11.90
2019-05-17T04:53:32.873Z,11.90
2019-05-17T04:56:03.104Z,11.90
2019-05-17T04:58:33.397Z,11.90
2019-05-17T05:01:04.049Z,11.90
2019-05-17T05:03:33.359Z,11.90
2019-05-17T05:06:03.410Z,11.90
2019-05-17T05:08:33.227Z,11.90
2019-05-17T05:11:04.139Z,11.80
2019-05-17T05:13:33.564Z,11.80
2019-05-17T05:16:03.189Z,11.80
2019-05-17T05:18:32.814Z,11.80
2019-05-17T05:21:03.647Z,11.80
2019-05-17T05:23:32.671Z,11.80
2019-05-17T05:26:03.077Z,11.80
2019-05-17T05:28:32.403Z,11.80
2019-05-17T05:31:01.951Z,11.90
2019-05-17T05:33:33.311Z,11.80
2019-05-17T05:36:02.216Z,11.80
2019-05-17T05:38:32.059Z,11.80
2019-05-17T05:41:01.834Z,11.80
2019-05-17T05:43:32.744Z,11.80
2019-05-17T05:46:02.558Z,11.80
2019-05-17T05:48:32.642Z,11.80
2019-05-17T05:51:03.849Z,11.90
2019-05-17T05:53:32.694Z,11.90
2019-05-17T05:56:03.179Z,11.90
2019-05-17T05:58:32.427Z,11.90
2019-05-17T06:01:02.364Z,12.00
2019-05-17T06:03:32.058Z,12.00
2019-05-17T06:06:01.800Z,12.10
2019-05-17T06:08:32.177Z,12.10
2019-05-17T06:11:02.155Z,12.10
2019-05-17T06:13:32.521Z,12.20
2019-05-17T06:16:02.739Z,12.20
2019-05-17T06:18:32.240Z,12.20
2019-05-17T06:21:03.057Z,12.30
2019-05-17T06:23:31.844Z,12.30
2019-05-17T06:26:03.891Z,12.30
2019-05-17T06:28:31.914Z,12.40
2019-05-17T06:31:02.997Z,12.40
2019-05-17T06:33:34.599Z,12.30
2019-05-17T06:36:02.785Z,12.20
2019-05-17T06:38:32.931Z,12.20
2019-05-17T06:41:01.904Z,12.10
2019-05-17T06:43:32.263Z,12.20
2019-05-17T06:46:01.810Z,12.20
2019-05-17T06:48:31.867Z,12.20
2019-05-17T06:51:02.549Z,12.20
2019-05-17T06:53:32.305Z,12.30
2019-05-17T06:56:02.694Z,12.30
2019-05-17T06:58:31.875Z,12.30
2019-05-17T07:01:00.881Z,12.40
2019-05-17T07:03:29.662Z,12.50
2019-05-17T07:06:00.147Z,12.50
2019-05-17T07:08:29.535Z,12.60
2019-05-17T07:10:59.753Z,12.70
2019-05-17T07:13:30.129Z,12.80
2019-05-17T07:15:59.770Z,12.90
2019-05-17T07:18:29.962Z,13.00
2019-05-17T07:21:02.836Z,13.10
2019-05-17T07:23:30.278Z,13.20
2019-05-17T07:25:59.721Z,13.40
2019-05-17T07:28:30.230Z,13.50
2019-05-17T07:30:59.645Z,13.60
2019-05-17T07:33:30.552Z,13.60
2019-05-17T07:35:59.530Z,13.50
2019-05-17T07:38:30.331Z,13.40
2019-05-17T07:40:59.551Z,13.30
2019-05-17T07:43:29.810Z,13.30
2019-05-17T07:46:00.469Z,13.30
2019-05-17T07:48:31.403Z,13.20
2019-05-17T07:50:59.945Z,13.30
2019-05-17T07:53:30.727Z,13.30
2019-05-17T07:55:59.610Z,13.30
2019-05-17T07:58:29.969Z,13.30
2019-05-17T08:01:01.530Z,13.30
2019-05-17T08:03:29.884Z,13.30
2019-05-17T08:06:00.029Z,13.40
2019-05-17T08:08:31.056Z,13.40
2019-05-17T08:11:00.333Z,13.40
2019-05-17T08:13:31.348Z,13.50
2019-05-17T08:15:59.974Z,13.60
2019-05-17T08:18:29.640Z,13.70
2019-05-17T08:20:59.728Z,13.70
2019-05-17T08:23:30.452Z,13.70
2019-05-17T08:26:00.439Z,13.70
2019-05-17T08:28:31.258Z,13.70
2019-05-17T08:31:01.063Z,13.80
2019-05-17T08:33:30.769Z,13.90
2019-05-17T08:36:00.887Z,14.10
2019-05-17T08:38:30.583Z,14.20
2019-05-17T08:41:00.695Z,14.20
2019-05-17T08:43:39.854Z,14.20
2019-05-17T08:46:02.365Z,14.10
2019-05-17T08:48:30.671Z,14.00
2019-05-17T08:51:00.118Z,13.90
2019-05-17T08:53:30.517Z,13.90
2019-05-17T08:56:00.958Z,13.90
2019-05-17T08:58:30.636Z,13.90
2019-05-17T09:01:00.332Z,13.80
2019-05-17T09:03:30.382Z,13.70
2019-05-17T09:06:02.413Z,13.60
2019-05-17T09:08:30.303Z,13.60
2019-05-17T09:11:00.321Z,13.60
2019-05-17T09:13:29.968Z,13.60
2019-05-17T09:16:00.288Z,13.60
2019-05-17T09:18:30.125Z,13.50
2019-05-17T09:21:00.307Z,13.50
2019-05-17T09:23:30.435Z,13.40
2019-05-17T09:25:59.794Z,13.40
2019-05-17T09:28:29.972Z,13.50
2019-05-17T09:30:59.914Z,13.50
2019-05-17T09:33:30.009Z,13.40
2019-05-17T09:36:00.680Z,13.40
2019-05-17T09:38:29.701Z,13.50
2019-05-17T09:40:59.968Z,13.50
2019-05-17T09:43:29.539Z,13.50
2019-05-17T09:46:01.145Z,13.50
2019-05-17T09:48:30.680Z,13.70
2019-05-17T09:51:00.021Z,13.80
2019-05-17T09:53:30.705Z,14.00
2019-05-17T09:56:00.549Z,14.10
2019-05-17T09:58:30.108Z,14.10
2019-05-17T10:01:01.709Z,14.30
2019-05-17T10:03:30.883Z,14.40
2019-05-17T10:06:00.144Z,14.60
2019-05-17T10:08:28.999Z,14.90
2019-05-17T10:11:06.031Z,15.10
2019-05-17T10:13:29.189Z,15.30
2019-05-17T10:16:00.322Z,15.50
2019-05-17T10:18:29.543Z,15.60
2019-05-17T10:20:59.848Z,15.60
2019-05-17T10:23:29.941Z,15.50
2019-05-17T10:25:59.589Z,15.40
2019-05-17T10:28:28.757Z,15.40
2019-05-17T10:31:02.037Z,15.30
2019-05-17T10:33:29.464Z,15.20
2019-05-17T10:36:00.471Z,15.20
2019-05-17T10:38:30.021Z,15.10
2019-05-17T10:40:59.171Z,15.20
2019-05-17T10:43:29.879Z,15.20
2019-05-17T10:45:59.814Z,15.20
2019-05-17T10:48:30.069Z,15.20
2019-05-17T10:51:00.388Z,15.20
2019-05-17T10:53:29.833Z,15.10
2019-05-17T10:56:00.619Z,15.20
2019-05-17T10:58:29.774Z,15.20
2019-05-17T11:01:00.763Z,15.20
2019-05-17T11:03:29.720Z,15.10
2019-05-17T11:05:59.796Z,15.20
2019-05-17T11:08:28.893Z,15.30
2019-05-17T11:10:59.614Z,15.30
2019-05-17T11:13:28.339Z,15.30
2019-05-17T11:15:57.145Z,15.40
2019-05-17T11:18:26.140Z,15.50
2019-05-17T11:20:55.241Z,15.50
2019-05-17T11:23:24.226Z,15.50
2019-05-17T11:25:53.222Z,15.50
2019-05-17T11:28:22.321Z,15.50
2019-05-17T11:30:51.306Z,15.50
2019-05-17T11:33:20.202Z,15.50
2019-05-17T11:35:49.190Z,15.50
2019-05-17T11:38:18.284Z,15.50
2019-05-17T11:40:49.849Z,15.60
2019-05-17T11:43:17.913Z,15.70
2019-05-17T11:45:46.903Z,15.80
2019-05-17T11:48:15.895Z,15.80
2019-05-17T11:50:44.887Z,15.80
2019-05-17T11:53:13.880Z,15.90
2019-05-17T11:55:42.875Z,16.00
2019-05-17T11:58:11.868Z,16.00
2019-05-17T12:00:40.961Z,16.00
2019-05-17T12:03:09.954Z,16.00
2019-05-17T12:05:38.948Z,16.00
2019-05-17T12:08:08.818Z,16.00
2019-05-17T12:10:38.193Z,15.90
2019-05-17T12:13:07.302Z,15.80
2019-05-17T12:15:45.025Z,15.80
2019-05-17T12:18:06.881Z,15.80
2019-05-17T12:20:35.836Z,15.80
2019-05-17T12:23:05.071Z,15.90
2019-05-17T12:25:34.062Z,15.90
2019-05-17T12:28:03.064Z,16.00
2019-05-17T12:30:32.051Z,16.00
2019-05-17T12:33:01.040Z,16.00
2019-05-17T12:35:30.033Z,16.00
2019-05-17T12:37:58.925Z,16.00
2019-05-17T12:40:27.917Z,15.90
2019-05-17T12:42:56.809Z,15.90
2019-05-17T12:45:25.698Z,15.90
2019-05-17T12:47:54.589Z,15.90
2019-05-17T12:50:23.569Z,16.00
2019-05-17T12:52:52.580Z,16.10
2019-05-17T12:55:21.467Z,16.30
2019-05-17T12:57:50.455Z,16.30
2019-05-17T13:00:19.961Z,16.40
2019-05-17T13:02:48.995Z,16.50
2019-05-17T13:05:17.874Z,16.60
2019-05-17T13:07:46.726Z,16.70
2019-05-17T13:10:15.639Z,16.80
2019-05-17T13:12:44.724Z,16.80
2019-05-17T13:15:13.815Z,16.80
2019-05-17T13:17:42.809Z,16.80
2019-05-17T13:20:13.535Z,16.70
2019-05-17T13:22:42.535Z,16.70
2019-05-17T13:25:11.658Z,16.70
2019-05-17T13:27:40.724Z,16.60
2019-05-17T13:30:10.749Z,16.60
2019-05-17T13:32:39.736Z,16.60
2019-05-17T13:35:09.575Z,16.60
2019-05-17T13:37:38.538Z,16.60
2019-05-17T13:40:07.942Z,16.60
2019-05-17T13:42:40.726Z,16.60
2019-05-17T13:45:10.105Z,16.60
2019-05-17T13:47:39.121Z,16.60
2019-05-17T13:50:08.258Z,16.50
2019-05-17T13:52:37.269Z,16.50
2019-05-17T13:55:12.632Z,16.50
2019-05-17T13:57:41.847Z,16.40
2019-05-17T14:00:11.335Z,16.40
2019-05-17T14:02:40.226Z,16.40
2019-05-17T14:05:09.959Z,16.40
2019-05-17T14:07:38.740Z,16.50
2019-05-17T14:10:24.495Z,16.60
2019-05-17T14:12:38.979Z,16.60
2019-05-17T14:15:08.964Z,16.70
2019-05-17T14:17:37.767Z,16.80
2019-05-17T14:20:07.035Z,16.80
2019-05-17T14:22:36.148Z,16.80
2019-05-17T14:25:06.897Z,16.80
2019-05-17T14:27:36.008Z,16.80
2019-05-17T14:30:07.150Z,16.80
2019-05-17T14:32:36.251Z,16.80
2019-05-17T14:35:06.062Z,16.80
2019-05-17T14:37:35.049Z,16.70
2019-05-17T14:40:05.783Z,16.70
2019-05-17T14:42:34.663Z,16.60
2019-05-17T14:45:04.382Z,16.60
2019-05-17T14:47:33.375Z,16.50
2019-05-17T14:50:02.371Z,16.40
2019-05-17T14:52:31.361Z,16.40
2019-05-17T14:55:06.292Z,16.40
2019-05-17T14:57:35.389Z,16.30
2019-05-17T15:00:05.527Z,16.20
2019-05-17T15:02:34.310Z,16.20
2019-05-17T15:05:03.516Z,16.20
2019-05-17T15:07:32.504Z,16.20
2019-05-17T15:10:01.580Z,16.10
2019-05-17T15:12:30.574Z,16.10
2019-05-17T15:14:59.566Z,16.10
2019-05-17T15:17:28.560Z,16.10
2019-05-17T15:19:57.453Z,16.10
2019-05-17T15:22:26.342Z,16.00
2019-05-17T15:24:55.220Z,16.00
2019-05-17T15:27:24.451Z,15.90
2019-05-17T15:29:53.423Z,15.90
2019-05-17T15:32:22.413Z,15.80
2019-05-17T15:34:51.408Z,15.90
2019-05-17T15:37:20.401Z,15.80
2019-05-17T15:39:49.275Z,15.80
2019-05-17T15:42:18.183Z,15.80
2019-05-17T15:44:47.176Z,15.80
2019-05-17T15:47:16.162Z,15.70
2019-05-17T15:49:45.054Z,15.60
2019-05-17T15:52:14.048Z,15.40
2019-05-17T15:54:42.834Z,15.30
2019-05-17T15:57:11.728Z,15.20
2019-05-17T15:59:40.723Z,15.20
2019-05-17T16:02:09.609Z,15.10
2019-05-17T16:04:38.605Z,15.10
2019-05-17T16:07:07.496Z,15.00
2019-05-17T16:09:36.366Z,15.00
2019-05-17T16:12:05.282Z,14.90
2019-05-17T16:14:34.274Z,14.80
2019-05-17T16:17:03.117Z,14.80
2019-05-17T16:19:32.034Z,14.80
2019-05-17T16:22:00.833Z,14.70
2019-05-17T16:24:29.722Z,14.70
2019-05-17T16:26:58.614Z,14.70
2019-05-17T16:29:27.585Z,14.60
2019-05-17T16:31:56.393Z,14.60
2019-05-17T16:34:25.489Z,14.60
2019-05-17T16:36:54.234Z,14.50
2019-05-17T16:39:23.168Z,14.50
2019-05-17T16:41:52.239Z,14.50
2019-05-17T16:44:21.260Z,14.40
2019-05-17T16:46:50.124Z,14.40
2019-05-17T16:49:19.039Z,14.30
2019-05-17T16:51:47.805Z,14.30
2019-05-17T16:54:16.689Z,14.30
2019-05-17T16:56:45.913Z,14.30
2019-05-17T16:59:14.801Z,14.30
2019-05-17T17:01:43.794Z,14.20
2019-05-17T17:04:12.596Z,14.20
2019-05-17T17:06:41.577Z,14.30
2019-05-17T17:09:10.332Z,14.20
2019-05-17T17:11:39.155Z,14.30
2019-05-17T17:14:08.044Z,14.30
2019-05-17T17:16:37.035Z,14.30
2019-05-17T17:19:06.130Z,14.30
2019-05-17T17:21:34.917Z,14.30
2019-05-17T17:24:03.809Z,14.30
2019-05-17T17:26:32.684Z,14.30
2019-05-17T17:29:01.695Z,14.30
2019-05-17T17:31:30.560Z,14.30
2019-05-17T17:33:59.453Z,14.20
2019-05-17T17:36:28.363Z,14.20
2019-05-17T17:38:57.155Z,14.20
2019-05-17T17:41:26.627Z,14.20
2019-05-17T17:43:58.555Z,14.10
2019-05-17T17:46:26.379Z,14.10
2019-05-17T17:48:55.373Z,14.10
2019-05-17T17:51:24.303Z,14.10
2019-05-17T17:53:53.359Z,14.10
2019-05-17T17:56:22.350Z,14.00
2019-05-17T17:58:51.219Z,14.10
2019-05-17T18:01:20.337Z,14.00
2019-05-17T18:03:49.229Z,14.10
2019-05-17T18:06:18.000Z,14.10
2019-05-17T18:08:47.728Z,14.00
2019-05-17T18:11:16.719Z,14.00
2019-05-17T18:13:45.507Z,14.10
2019-05-17T18:16:14.399Z,14.10
2019-05-17T18:18:43.389Z,14.10
2019-05-17T18:21:12.381Z,14.00
2019-05-17T18:23:41.204Z,14.00
2019-05-17T18:26:10.060Z,14.00
2019-05-17T18:28:39.052Z,14.00
2019-05-17T18:31:08.047Z,14.00
2019-05-17T18:33:37.038Z,14.00
2019-05-17T18:36:05.816Z,14.00
2019-05-17T18:38:35.739Z,14.00
2019-05-17T18:41:04.611Z,14.00
2019-05-17T18:43:33.396Z,14.00
2019-05-17T18:46:02.311Z,14.00
2019-05-17T18:48:31.135Z,14.00
2019-05-17T18:51:00.088Z,14.00
2019-05-17T18:53:29.081Z,14.00
2019-05-17T18:55:57.974Z,14.00
2019-05-17T18:58:26.862Z,14.00
2019-05-17T19:00:55.854Z,13.90
2019-05-17T19:03:24.648Z,13.90
2019-05-17T19:05:53.636Z,13.90
2019-05-17T19:08:22.527Z,13.90
2019-05-17T19:10:51.329Z,13.90
2019-05-17T19:13:21.023Z,13.90
2019-05-17T19:15:50.190Z,13.90
2019-05-17T19:18:18.996Z,13.90
2019-05-17T19:20:48.104Z,13.90
2019-05-17T19:23:17.096Z,13.80
2019-05-17T19:25:46.090Z,13.80
2019-05-17T19:28:14.981Z,13.80
2019-05-17T19:30:43.978Z,13.80
2019-05-17T19:33:12.870Z,13.80
2019-05-17T19:35:41.860Z,13.80
2019-05-17T19:38:10.693Z,13.80
2019-05-17T19:40:39.641Z,13.80
2019-05-17T19:43:08.628Z,13.80
2019-05-17T19:45:37.527Z,13.70
2019-05-17T19:48:06.626Z,13.70
2019-05-17T19:50:35.411Z,13.60
2019-05-17T19:53:04.398Z,13.60
2019-05-17T19:55:33.449Z,13.60
2019-05-17T19:58:02.316Z,13.60
2019-05-17T20:00:31.148Z,13.50
2019-05-17T20:02:59.958Z,13.50
2019-05-17T20:05:28.951Z,13.50
2019-05-17T20:07:57.842Z,13.40
2019-05-17T20:10:27.009Z,13.40
2019-05-17T20:12:56.029Z,13.40
2019-05-17T20:15:34.062Z,13.40
2019-05-17T20:17:55.324Z,13.30
2019-05-17T20:20:24.173Z,13.30
2019-05-17T20:22:53.083Z,13.30
2019-05-17T20:25:23.939Z,13.30
2019-05-17T20:27:53.059Z,13.20
2019-05-17T20:30:21.991Z,13.20
2019-05-17T20:32:50.940Z,13.20
2019-05-17T20:35:19.806Z,13.20
2019-05-17T20:37:48.845Z,13.10
2019-05-17T20:40:18.000Z,13.10
2019-05-17T20:42:46.824Z,13.10
2019-05-17T20:45:15.816Z,13.10
2019-05-17T20:47:44.799Z,13.10
2019-05-17T20:50:14.297Z,13.10
2019-05-17T20:52:43.173Z,13.10
2019-05-17T20:55:12.677Z,13.10
2019-05-17T20:57:41.586Z,13.00
2019-05-17T21:00:11.333Z,13.00
2019-05-17T21:02:40.175Z,13.00
2019-05-17T21:05:10.918Z,13.00
2019-05-17T21:07:39.709Z,13.00
2019-05-17T21:10:08.960Z,13.00
2019-05-17T21:12:37.877Z,12.90
2019-05-17T21:15:07.918Z,12.90
2019-05-17T21:17:36.652Z,12.90
2019-05-17T21:20:07.276Z,12.90
2019-05-17T21:22:36.074Z,12.90
2019-05-17T21:25:05.846Z,12.90
2019-05-17T21:27:34.824Z,12.90
2019-05-17T21:30:04.156Z,12.90
2019-05-17T21:32:32.933Z,12.90
2019-05-17T21:35:01.910Z,12.90
2019-05-17T21:37:30.680Z,12.80
2019-05-17T21:39:59.581Z,12.80
2019-05-17T21:42:28.473Z,12.80
2019-05-17T21:44:57.339Z,12.80
2019-05-17T21:47:26.254Z,12.80
2019-05-17T21:49:56.016Z,12.80
2019-05-17T21:52:24.859Z,12.80
2019-05-17T21:54:53.747Z,12.80
2019-05-17T21:57:22.840Z,12.80
2019-05-17T21:59:51.731Z,12.80
2019-05-17T22:02:20.621Z,12.70
2019-05-17T22:04:49.492Z,12.70
2019-05-17T22:07:18.504Z,12.70
2019-05-17T22:09:47.394Z,12.70
2019-05-17T22:12:16.256Z,12.70
2019-05-17T22:14:45.172Z,12.70
2019-05-17T22:17:14.164Z,12.70
2019-05-17T22:19:43.142Z,12.70
2019-05-17T22:22:12.047Z,12.70
2019-05-17T22:24:40.815Z,12.70
2019-05-17T22:27:09.828Z,12.70
2019-05-17T22:29:38.595Z,12.70
2019-05-17T22:32:07.618Z,12.70
2019-05-17T22:34:36.499Z,12.70
2019-05-17T22:37:05.390Z,12.70
2019-05-17T22:39:34.280Z,12.60
2019-05-17T22:42:03.149Z,12.60
2019-05-17T22:44:32.163Z,12.60
2019-05-17T22:47:00.928Z,12.60
2019-05-17T22:49:29.943Z,12.60
2019-05-17T22:51:58.943Z,12.60
2019-05-17T22:54:27.828Z,12.60
2019-05-17T22:56:56.720Z,12.50
2019-05-17T22:59:25.714Z,12.50
2019-05-17T23:01:54.702Z,12.50
2019-05-17T23:04:23.552Z,12.50
2019-05-17T23:06:52.381Z,12.40
2019-05-17T23:09:21.128Z,12.50
2019-05-17T23:11:50.161Z,12.50
2019-05-17T23:14:22.022Z,12.50
2019-05-17T23:16:52.091Z,12.50
2019-05-17T23:19:21.239Z,12.50
2019-05-17T23:21:50.001Z,12.40
2019-05-17T23:24:18.893Z,12.40
2019-05-17T23:26:47.968Z,12.40
2019-05-17T23:29:16.782Z,12.40
2019-05-17T23:31:45.691Z,12.40
2019-05-17T23:34:14.552Z,12.30
2019-05-17T23:36:43.469Z,12.30
2019-05-17T23:39:12.443Z,12.20
2019-05-17T23:41:41.365Z,12.20
2019-05-17T23:44:10.123Z,12.10
2019-05-17T23:46:39.007Z,12.10
2019-05-17T23:49:07.899Z,12.00
2019-05-17T23:51:36.914Z,11.90
2019-05-17T23:54:05.805Z,11.90
2019-05-17T23:56:34.693Z,11.80
2019-05-17T23:59:03.461Z,11.80
